createdAt,value
2022-12-18T00:01:21.097Z,15.25
2022-12-18T00:03:48.515Z,11.60
2022-12-18T00:06:16.327Z,13.65
2022-12-18T00:08:44.482Z,14.13
2022-12-18T00:11:16.930Z,13.85
2022-12-18T00:13:44.073Z,11.32
2022-12-18T00:16:13.461Z,13.10
2022-12-18T00:18:40.806Z,14.60
2022-12-18T00:21:11.022Z,11.95
2022-12-18T00:23:40.314Z,12.93
2022-12-18T00:26:10.992Z,13.23
2022-12-18T00:28:37.830Z,13.27
2022-12-18T00:31:06.437Z,16.73
2022-12-18T00:33:33.483Z,11.52
2022-12-18T00:36:05.304Z,12.27
2022-12-18T00:38:32.872Z,11.50
2022-12-18T00:40:59.478Z,12.98
2022-12-18T00:43:26.005Z,13.45
2022-12-18T00:45:53.570Z,12.55
2022-12-18T00:48:20.178Z,12.23
2022-12-18T00:50:48.598Z,10.65
2022-12-18T00:53:15.525Z,12.60
2022-12-18T00:55:42.583Z,11.57
2022-12-18T00:58:10.393Z,10.38
2022-12-18T01:00:37.218Z,12.07
2022-12-18T01:03:04.666Z,14.30
2022-12-18T01:05:31.518Z,11.65
2022-12-18T01:07:58.552Z,9.82
2022-12-18T01:10:25.937Z,10.82
2022-12-18T01:12:52.692Z,11.93
2022-12-18T01:15:20.274Z,10.75
2022-12-18T01:17:46.849Z,12.48
2022-12-18T01:20:14.028Z,12.90
2022-12-18T01:22:40.777Z,11.98
2022-12-18T01:25:08.160Z,11.20
2022-12-18T01:27:35.230Z,13.07
2022-12-18T01:30:04.963Z,11.15
2022-12-18T01:32:32.610Z,10.23
2022-12-18T01:34:59.453Z,11.05
2022-12-18T01:37:27.411Z,14.45
2022-12-18T01:39:55.217Z,12.05
2022-12-18T01:42:22.480Z,9.95
2022-12-18T01:45:00.698Z,14.32
2022-12-18T01:47:46.292Z,13.27
2022-12-18T01:50:23.890Z,13.82
2022-12-18T01:53:00.480Z,11.48
2022-12-18T01:55:30.421Z,11.82
2022-12-18T01:57:59.597Z,10.88
2022-12-18T02:00:27.465Z,11.13
2022-12-18T02:02:54.548Z,12.38
2022-12-18T02:05:57.090Z,10.13
2022-12-18T02:08:33.894Z,12.20
2022-12-18T02:11:45.710Z,10.80
2022-12-18T02:14:24.994Z,12.05
2022-12-18T02:17:10.944Z,11.73
2022-12-18T02:20:03.605Z,11.60
2022-12-18T02:22:54.958Z,11.20
2022-12-18T02:25:43.583Z,12.40
2022-12-18T02:28:14.306Z,12.40
2022-12-18T02:30:43.190Z,10.43
2022-12-18T02:33:13.300Z,10.65
2022-12-18T02:35:42.641Z,12.35
2022-12-18T02:38:10.281Z,11.23
2022-12-18T02:40:39.945Z,12.50
2022-12-18T02:43:14.181Z,10.48
2022-12-18T02:45:49.628Z,8.35
2022-12-18T02:48:20.666Z,10.85
2022-12-18T02:51:04.997Z,11.45
2022-12-18T02:53:41.447Z,12.35
2022-12-18T02:56:51.261Z,13.13
2022-12-18T02:59:27.461Z,8.93
2022-12-18T03:02:05.739Z,12.45
2022-12-18T03:04:49.248Z,10.75
2022-12-18T03:07:24.649Z,10.60
2022-12-18T03:09:56.217Z,9.75
2022-12-18T03:12:35.876Z,11.38
2022-12-18T03:15:17.444Z,10.57
2022-12-18T03:18:02.376Z,10.90
2022-12-18T03:20:35.102Z,12.48
2022-12-18T03:23:12.363Z,11.30
2022-12-18T03:25:42.702Z,9.65
2022-12-18T03:28:15.553Z,11.00
2022-12-18T03:30:45.765Z,11.32
2022-12-18T03:33:26.628Z,10.23
2022-12-18T03:35:55.130Z,11.80
2022-12-18T03:38:23.216Z,11.32
2022-12-18T03:41:16.949Z,9.20
2022-12-18T03:44:31.070Z,10.82
2022-12-18T03:47:21.559Z,10.35
2022-12-18T03:49:56.831Z,11.93
2022-12-18T03:55:10.628Z,10.93
2022-12-18T03:57:39.570Z,8.82
2022-12-18T04:00:16.188Z,10.18
2022-12-18T04:02:57.870Z,13.57
2022-12-18T04:05:35.800Z,9.88
2022-12-18T04:08:03.226Z,11.65
2022-12-18T04:10:31.382Z,12.48
2022-12-18T04:12:59.597Z,9.48
2022-12-18T04:15:26.911Z,10.15
2022-12-18T04:17:53.610Z,11.73
2022-12-18T04:20:23.857Z,9.68
2022-12-18T04:22:50.496Z,12.25
2022-12-18T04:25:19.360Z,10.25
2022-12-18T04:28:18.416Z,9.95
2022-12-18T04:30:44.964Z,14.52
2022-12-18T04:33:13.427Z,11.20
2022-12-18T04:35:41.228Z,10.82
2022-12-18T04:38:11.754Z,11.13
2022-12-18T04:40:39.177Z,10.40
2022-12-18T04:43:12.040Z,11.80
2022-12-18T04:45:38.900Z,10.55
2022-12-18T04:48:07.134Z,13.38
2022-12-18T04:50:33.670Z,11.23
2022-12-18T04:53:00.224Z,10.55
2022-12-18T04:55:27.858Z,10.10
2022-12-18T04:57:54.676Z,10.65
2022-12-18T05:00:21.249Z,11.73
2022-12-18T05:02:48.056Z,9.82
2022-12-18T05:05:14.782Z,10.00
2022-12-18T05:07:41.387Z,9.98
2022-12-18T05:10:08.505Z,11.73
2022-12-18T05:12:35.023Z,9.10
2022-12-18T05:15:01.548Z,9.32
2022-12-18T05:17:28.065Z,8.43
2022-12-18T05:19:54.554Z,7.70
2022-12-18T05:22:21.160Z,8.43
2022-12-18T05:24:47.978Z,10.27
2022-12-18T05:27:14.479Z,7.20
2022-12-18T05:29:40.989Z,6.85
2022-12-18T05:32:07.495Z,9.90
2022-12-18T05:34:34.402Z,9.20
2022-12-18T05:37:00.897Z,8.45
2022-12-18T05:39:27.590Z,8.98
2022-12-18T05:41:54.154Z,6.65
2022-12-18T05:44:20.676Z,7.07
2022-12-18T05:46:47.259Z,8.70
2022-12-18T05:49:13.780Z,10.23
2022-12-18T05:51:40.325Z,11.50
2022-12-18T05:54:07.926Z,9.60
2022-12-18T05:56:34.709Z,8.95
2022-12-18T05:59:01.314Z,8.73
2022-12-18T06:01:28.086Z,7.40
2022-12-18T06:03:55.730Z,8.27
2022-12-18T06:06:27.906Z,9.48
2022-12-18T06:08:55.641Z,8.95
2022-12-18T06:11:25.578Z,6.68
2022-12-18T06:13:58.169Z,5.50
2022-12-18T06:16:25.226Z,5.93
2022-12-18T06:18:51.815Z,5.55
2022-12-18T06:21:18.436Z,6.35
2022-12-18T06:23:44.965Z,6.68
2022-12-18T06:26:13.403Z,7.55
2022-12-18T06:28:39.959Z,7.15
2022-12-18T06:31:08.023Z,5.85
2022-12-18T06:33:35.693Z,4.50
2022-12-18T06:36:10.668Z,5.30
2022-12-18T06:41:10.781Z,5.93
2022-12-18T06:43:37.582Z,6.30
2022-12-18T06:46:05.585Z,6.97
2022-12-18T06:48:33.365Z,5.85
2022-12-18T06:51:00.007Z,4.75
2022-12-18T06:53:27.160Z,5.47
2022-12-18T06:55:53.777Z,4.10
2022-12-18T06:58:20.387Z,5.40
2022-12-18T07:00:47.623Z,5.60
2022-12-18T07:03:14.357Z,4.80
2022-12-18T07:05:41.812Z,5.82
2022-12-18T07:08:09.097Z,6.05
2022-12-18T07:10:47.563Z,4.57
2022-12-18T07:13:16.762Z,6.78
2022-12-18T07:15:44.112Z,6.18
2022-12-18T07:18:11.589Z,6.60
2022-12-18T07:20:38.126Z,5.93
2022-12-18T07:23:06.094Z,5.28
2022-12-18T07:25:36.599Z,5.22
2022-12-18T07:28:04.034Z,5.05
2022-12-18T07:30:30.662Z,4.65
2022-12-18T07:32:57.306Z,5.47
2022-12-18T07:35:25.399Z,4.95
2022-12-18T07:37:52.348Z,6.65
2022-12-18T07:40:19.115Z,4.70
2022-12-18T07:42:45.704Z,5.57
2022-12-18T07:45:12.250Z,4.95
2022-12-18T07:47:39.251Z,4.38
2022-12-18T07:50:06.612Z,2.63
2022-12-18T07:52:33.196Z,3.78
2022-12-18T07:54:59.971Z,3.85
2022-12-18T07:57:52.541Z,4.07
2022-12-18T08:00:13.689Z,4.57
2022-12-18T08:02:40.344Z,5.75
2022-12-18T08:05:09.297Z,5.30
2022-12-18T08:07:35.876Z,6.50
2022-12-18T08:10:02.582Z,6.88
2022-12-18T08:12:29.115Z,6.10
2022-12-18T08:14:55.647Z,3.97
2022-12-18T08:17:22.268Z,4.28
2022-12-18T08:19:48.880Z,6.45
2022-12-18T08:22:15.385Z,3.30
2022-12-18T08:24:41.970Z,4.07
2022-12-18T08:29:55.043Z,5.57
2022-12-18T08:32:21.607Z,4.00
2022-12-18T08:34:48.339Z,3.88
2022-12-18T08:37:14.873Z,4.25
2022-12-18T08:39:41.503Z,4.82
2022-12-18T08:42:26.553Z,4.50
2022-12-18T08:44:53.072Z,4.15
2022-12-18T08:47:19.567Z,4.80
2022-12-18T08:49:46.397Z,6.03
2022-12-18T08:52:15.869Z,4.18
2022-12-18T08:54:42.435Z,5.15
2022-12-18T08:57:09.000Z,3.95
2022-12-18T08:59:35.586Z,3.30
2022-12-18T09:02:02.338Z,5.38
2022-12-18T09:04:29.102Z,4.35
2022-12-18T09:06:57.022Z,5.30
2022-12-18T09:09:23.554Z,4.47
2022-12-18T09:11:50.133Z,4.68
2022-12-18T09:14:16.717Z,4.82
2022-12-18T09:16:43.762Z,4.20
2022-12-18T09:19:10.648Z,4.32
2022-12-18T09:21:37.614Z,4.40
2022-12-18T09:24:09.040Z,4.47
2022-12-18T09:26:36.062Z,5.18
2022-12-18T09:29:03.918Z,4.03
2022-12-18T09:31:30.698Z,5.22
2022-12-18T09:33:57.659Z,4.80
2022-12-18T09:36:24.349Z,3.78
2022-12-18T09:38:51.041Z,4.82
2022-12-18T09:41:36.564Z,3.33
2022-12-18T09:46:48.674Z,3.25
2022-12-18T09:49:19.264Z,3.47
2022-12-18T09:51:56.971Z,4.43
2022-12-18T09:54:31.986Z,3.92
2022-12-18T09:56:58.609Z,5.07
2022-12-18T09:59:31.729Z,4.55
2022-12-18T10:01:58.516Z,5.35
2022-12-18T10:04:31.466Z,4.22
2022-12-18T10:07:17.291Z,4.32
2022-12-18T10:10:07.899Z,4.28
2022-12-18T10:16:41.467Z,4.25
2022-12-18T10:19:29.913Z,5.03
2022-12-18T10:22:18.091Z,3.88
2022-12-18T10:24:59.870Z,3.75
2022-12-18T10:27:27.966Z,4.75
2022-12-18T10:29:54.980Z,4.25
2022-12-18T10:32:27.250Z,5.30
2022-12-18T10:35:00.473Z,4.78
2022-12-18T10:37:30.527Z,4.03
2022-12-18T10:40:18.427Z,5.18
2022-12-18T10:43:04.339Z,5.32
2022-12-18T10:45:30.886Z,5.90
2022-12-18T10:47:57.502Z,4.68
2022-12-18T10:51:01.301Z,5.00
2022-12-18T10:53:26.183Z,5.93
2022-12-18T10:55:55.428Z,5.45
2022-12-18T10:58:32.470Z,4.82
2022-12-18T11:01:10.490Z,4.97
2022-12-18T11:03:46.366Z,6.18
2022-12-18T11:06:18.306Z,5.43
2022-12-18T11:08:59.261Z,6.45
2022-12-18T11:11:26.398Z,4.75
2022-12-18T11:14:07.747Z,4.78
2022-12-18T11:19:42.185Z,7.28
2022-12-18T11:22:27.141Z,5.53
2022-12-18T11:28:25.902Z,4.93
2022-12-18T11:31:21.717Z,5.80
2022-12-18T11:34:27.398Z,4.80
2022-12-18T11:36:48.268Z,4.28
2022-12-18T11:39:55.918Z,5.30
2022-12-18T11:42:50.618Z,3.95
2022-12-18T11:45:30.253Z,6.07
2022-12-18T11:48:02.692Z,4.63
2022-12-18T11:50:44.923Z,4.53
2022-12-18T11:53:12.930Z,4.97
2022-12-18T11:55:51.985Z,5.25
2022-12-18T11:58:38.691Z,5.47
2022-12-18T12:01:32.053Z,5.30
2022-12-18T12:04:13.253Z,5.03
2022-12-18T12:06:52.004Z,5.78
2022-12-18T12:09:30.246Z,4.88
2022-12-18T12:12:18.545Z,5.82
2022-12-18T12:15:28.256Z,4.90
2022-12-18T12:18:19.457Z,5.28
2022-12-18T12:20:53.635Z,6.05
2022-12-18T12:23:32.252Z,5.90
2022-12-18T12:26:24.891Z,5.85
2022-12-18T12:28:54.542Z,4.95
2022-12-18T12:31:34.592Z,4.97
2022-12-18T12:34:22.653Z,6.60
2022-12-18T12:37:12.844Z,5.15
2022-12-18T12:39:43.356Z,4.95
2022-12-18T12:42:38.265Z,5.22
2022-12-18T12:45:07.637Z,5.15
2022-12-18T12:47:41.655Z,5.60
2022-12-18T12:50:16.601Z,5.00
2022-12-18T12:52:54.386Z,4.55
2022-12-18T12:55:27.709Z,5.80
2022-12-18T12:58:19.993Z,5.25
2022-12-18T13:01:18.421Z,5.75
2022-12-18T13:04:16.260Z,4.55
2022-12-18T13:07:27.990Z,4.63
2022-12-18T13:11:56.301Z,4.57
2022-12-18T13:14:31.131Z,4.03
2022-12-18T13:17:22.711Z,4.28
2022-12-18T13:20:05.400Z,4.13
2022-12-18T13:22:45.845Z,4.68
2022-12-18T13:25:37.104Z,4.68
2022-12-18T13:28:35.872Z,4.80
2022-12-18T13:31:03.510Z,5.15
2022-12-18T13:33:29.915Z,5.00
2022-12-18T13:36:04.138Z,4.43
2022-12-18T13:38:39.357Z,4.40
2022-12-18T13:41:28.914Z,4.10
2022-12-18T13:43:58.942Z,5.00
2022-12-18T13:46:28.368Z,4.88
2022-12-18T13:48:57.013Z,4.45
2022-12-18T13:51:25.431Z,5.68
2022-12-18T13:53:51.880Z,4.30
2022-12-18T13:56:22.197Z,4.63
2022-12-18T13:59:23.227Z,4.22
2022-12-18T14:01:58.559Z,4.47
2022-12-18T14:04:36.465Z,5.05
2022-12-18T14:07:11.826Z,4.78
2022-12-18T14:10:26.093Z,5.18
2022-12-18T14:12:57.727Z,4.43
2022-12-18T14:15:27.357Z,5.47
2022-12-18T14:17:58.028Z,4.60
2022-12-18T14:20:26.738Z,4.20
2022-12-18T14:22:53.917Z,4.57
2022-12-18T14:25:23.506Z,6.07
2022-12-18T14:28:08.643Z,5.38
2022-12-18T14:30:43.555Z,5.50
2022-12-18T14:33:10.266Z,5.22
2022-12-18T14:35:40.424Z,5.45
2022-12-18T14:38:23.456Z,5.35
2022-12-18T14:40:54.472Z,5.13
2022-12-18T14:43:21.975Z,5.45
2022-12-18T14:45:50.359Z,4.22
2022-12-18T14:48:23.024Z,4.68
2022-12-18T14:51:03.540Z,5.97
2022-12-18T14:53:40.428Z,4.18
2022-12-18T14:56:21.636Z,4.85
2022-12-18T14:58:51.287Z,5.05
2022-12-18T15:01:24.992Z,5.57
2022-12-18T15:03:53.459Z,5.38
2022-12-18T15:06:38.358Z,4.97
2022-12-18T15:09:24.311Z,5.07
2022-12-18T15:11:59.643Z,6.68
2022-12-18T15:17:15.949Z,5.13
2022-12-18T15:19:44.580Z,5.95
2022-12-18T15:22:34.765Z,6.55
2022-12-18T15:29:40.245Z,6.63
2022-12-18T15:32:20.247Z,6.20
2022-12-18T15:34:46.911Z,5.90
2022-12-18T15:37:13.476Z,6.55
2022-12-18T15:39:40.021Z,5.13
2022-12-18T15:46:43.249Z,5.25
2022-12-18T15:49:10.291Z,5.25
2022-12-18T15:51:39.293Z,6.57
2022-12-18T15:54:12.784Z,6.15
2022-12-18T15:56:57.988Z,6.97
2022-12-18T15:59:25.286Z,7.40
2022-12-18T16:01:55.970Z,7.25
2022-12-18T16:04:24.476Z,7.63
2022-12-18T16:09:41.143Z,6.03
2022-12-18T16:12:16.543Z,6.32
2022-12-18T16:14:43.731Z,6.50
2022-12-18T16:17:12.409Z,6.28
2022-12-18T16:19:39.479Z,6.53
2022-12-18T16:22:19.083Z,6.25
2022-12-18T16:24:45.675Z,6.65
2022-12-18T16:27:12.254Z,6.95
2022-12-18T16:29:38.890Z,6.57
2022-12-18T16:32:05.437Z,5.72
2022-12-18T16:34:35.914Z,6.00
2022-12-18T16:37:06.331Z,7.25
2022-12-18T16:39:34.903Z,5.82
2022-12-18T16:42:17.260Z,6.85
2022-12-18T16:44:44.806Z,6.38
2022-12-18T16:47:15.004Z,6.57
2022-12-18T16:49:42.889Z,6.43
2022-12-18T16:52:09.453Z,6.78
2022-12-18T16:54:37.259Z,6.18
2022-12-18T16:57:05.274Z,7.25
2022-12-18T16:59:32.596Z,7.65
2022-12-18T17:02:04.993Z,6.75
2022-12-18T17:04:31.765Z,6.85
2022-12-18T17:06:58.623Z,7.43
2022-12-18T17:09:25.583Z,6.57
2022-12-18T17:11:53.303Z,7.88
2022-12-18T17:14:22.305Z,7.53
2022-12-18T17:16:54.251Z,7.60
2022-12-18T17:19:35.695Z,7.70
2022-12-18T17:22:02.653Z,6.10
2022-12-18T17:24:34.507Z,7.18
2022-12-18T17:27:02.264Z,7.68
2022-12-18T17:29:28.818Z,6.50
2022-12-18T17:31:55.398Z,6.57
2022-12-18T17:34:23.856Z,6.80
2022-12-18T17:36:50.416Z,7.03
2022-12-18T17:39:19.579Z,6.90
2022-12-18T17:41:46.934Z,7.57
2022-12-18T17:44:13.758Z,7.82
2022-12-18T17:46:40.948Z,7.25
2022-12-18T17:49:07.636Z,8.40
2022-12-18T17:51:34.245Z,9.18
2022-12-18T17:54:00.800Z,8.10
2022-12-18T17:56:27.572Z,8.70
2022-12-18T17:58:54.675Z,7.53
2022-12-18T18:01:25.008Z,8.50
2022-12-18T18:03:56.384Z,8.32
2022-12-18T18:06:23.931Z,7.38
2022-12-18T18:08:51.149Z,8.77
2022-12-18T18:11:38.473Z,8.57
2022-12-18T18:14:11.165Z,8.77
2022-12-18T18:16:44.670Z,8.80
2022-12-18T18:19:16.476Z,8.30
2022-12-18T18:21:44.566Z,8.45
2022-12-18T18:24:13.861Z,9.73
2022-12-18T18:26:41.556Z,8.63
2022-12-18T18:29:08.962Z,8.38
2022-12-18T18:31:41.317Z,10.38
2022-12-18T18:34:13.375Z,8.15
2022-12-18T18:36:39.947Z,10.05
2022-12-18T18:39:07.265Z,8.05
2022-12-18T18:41:36.039Z,9.75
2022-12-18T18:44:02.769Z,8.40
2022-12-18T18:46:29.405Z,9.13
2022-12-18T18:48:56.777Z,8.38
2022-12-18T18:51:23.845Z,8.85
2022-12-18T18:53:52.570Z,10.15
2022-12-18T18:59:08.817Z,8.88
2022-12-18T19:01:35.525Z,9.10
2022-12-18T19:04:02.276Z,10.25
2022-12-18T19:06:29.794Z,9.52
2022-12-18T19:08:57.059Z,9.25
2022-12-18T19:11:44.086Z,9.77
2022-12-18T19:14:13.525Z,9.93
2022-12-18T19:16:40.553Z,8.35
2022-12-18T19:19:07.867Z,9.32
2022-12-18T19:21:35.345Z,9.40
2022-12-18T19:24:02.695Z,11.25
2022-12-18T19:26:29.813Z,10.00
2022-12-18T19:29:07.794Z,11.48
2022-12-18T19:31:37.036Z,10.00
2022-12-18T19:34:08.104Z,9.40
2022-12-18T19:36:38.632Z,10.65
2022-12-18T19:39:15.474Z,9.73
2022-12-18T19:41:43.138Z,8.82
2022-12-18T19:44:16.803Z,9.93
2022-12-18T19:46:46.032Z,8.30
2022-12-18T19:49:18.177Z,9.45
2022-12-18T19:54:17.732Z,9.02
2022-12-18T19:56:45.352Z,9.50
2022-12-18T19:59:11.929Z,8.95
2022-12-18T20:01:38.564Z,9.00
2022-12-18T20:04:05.544Z,9.32
2022-12-18T20:06:35.186Z,9.75
2022-12-18T20:09:06.475Z,9.95
2022-12-18T20:11:41.255Z,10.75
2022-12-18T20:16:35.467Z,9.40
2022-12-18T20:19:02.362Z,10.23
2022-12-18T20:21:29.398Z,8.80
2022-12-18T20:23:56.432Z,9.95
2022-12-18T20:26:23.899Z,10.27
2022-12-18T20:28:50.602Z,9.18
2022-12-18T20:31:17.151Z,9.77
2022-12-18T20:33:45.171Z,11.88
2022-12-18T20:36:17.607Z,9.40
2022-12-18T20:38:47.910Z,10.25
2022-12-18T20:41:20.668Z,10.80
2022-12-18T20:43:47.845Z,10.88
2022-12-18T20:46:16.751Z,9.02
2022-12-18T20:48:44.581Z,9.73
2022-12-18T20:51:14.319Z,9.82
2022-12-18T20:53:42.149Z,10.50
2022-12-18T20:56:11.416Z,9.68
2022-12-18T20:58:38.147Z,9.52
2022-12-18T21:01:16.202Z,9.90
2022-12-18T21:03:45.815Z,9.07
2022-12-18T21:06:14.165Z,9.80
2022-12-18T21:08:41.006Z,8.98
2022-12-18T21:11:38.358Z,9.82
2022-12-18T21:14:17.198Z,10.43
2022-12-18T21:16:44.138Z,9.68
2022-12-18T21:19:12.803Z,9.73
2022-12-18T21:21:40.183Z,9.40
2022-12-18T21:24:07.849Z,11.45
2022-12-18T21:26:34.414Z,9.82
2022-12-18T21:29:03.875Z,10.25
2022-12-18T21:31:33.973Z,10.55
2022-12-18T21:34:02.035Z,9.32
2022-12-18T21:36:30.277Z,9.02
2022-12-18T21:38:58.407Z,9.13
2022-12-18T21:41:45.079Z,10.60
2022-12-18T21:44:15.119Z,9.60
2022-12-18T21:46:44.670Z,9.75
2022-12-18T21:49:14.465Z,9.07
2022-12-18T21:51:41.206Z,9.52
2022-12-18T21:54:07.764Z,10.43
2022-12-18T21:56:44.426Z,9.85
2022-12-18T21:59:13.542Z,10.63
2022-12-18T22:01:40.301Z,10.48
2022-12-18T22:04:06.982Z,9.77
2022-12-18T22:06:33.825Z,10.60
2022-12-18T22:09:01.330Z,9.63
2022-12-18T22:11:27.902Z,10.07
2022-12-18T22:13:54.723Z,10.15
2022-12-18T22:16:21.639Z,10.60
2022-12-18T22:18:48.349Z,10.30
2022-12-18T22:21:33.095Z,10.60
2022-12-18T22:24:01.957Z,11.77
2022-12-18T22:26:33.833Z,9.82
2022-12-18T22:29:22.720Z,9.52
2022-12-18T22:31:49.717Z,10.23
2022-12-18T22:34:19.436Z,8.80
2022-12-18T22:36:49.958Z,9.40
2022-12-18T22:39:20.091Z,8.23
2022-12-18T22:41:47.174Z,10.05
2022-12-18T22:44:15.715Z,10.25
2022-12-18T22:46:49.296Z,8.45
2022-12-18T22:49:26.970Z,7.90
2022-12-18T22:51:53.618Z,10.25
2022-12-18T22:54:20.934Z,9.95
2022-12-18T22:56:47.677Z,10.25
2022-12-18T22:59:17.455Z,9.93
2022-12-18T23:01:45.048Z,8.98
2022-12-18T23:04:13.311Z,8.65
2022-12-18T23:06:40.609Z,9.20
2022-12-18T23:09:07.749Z,8.95
2022-12-18T23:11:34.269Z,10.35
2022-12-18T23:14:00.825Z,10.38
2022-12-18T23:16:28.137Z,7.78
2022-12-18T23:18:55.866Z,10.02
2022-12-18T23:21:23.140Z,8.95
2022-12-18T23:23:50.970Z,9.13
2022-12-18T23:26:23.541Z,9.85
2022-12-18T23:28:52.127Z,8.35
2022-12-18T23:31:27.628Z,8.68
2022-12-18T23:33:56.803Z,9.18
2022-12-18T23:36:23.741Z,9.55
2022-12-18T23:38:52.875Z,9.50
2022-12-18T23:41:21.546Z,9.27
2022-12-18T23:43:48.873Z,9.30
2022-12-18T23:46:27.286Z,9.32
2022-12-18T23:49:01.344Z,9.55
2022-12-18T23:51:29.217Z,9.55
2022-12-18T23:53:57.931Z,8.40
2022-12-18T23:56:25.492Z,8.73
2022-12-18T23:58:52.886Z,9.48
